createdAt,value
2023-04-13T00:03:10.229Z,4.04
2023-04-13T00:08:35.644Z,3.97
2023-04-13T00:13:59.461Z,3.91
2023-04-13T00:19:22.157Z,3.80
2023-04-13T00:24:44.593Z,3.79
2023-04-13T00:30:07.856Z,3.78
2023-04-13T00:35:32.857Z,3.69
2023-04-13T00:40:56.046Z,3.61
2023-04-13T00:46:20.683Z,3.54
2023-04-13T00:51:43.052Z,3.54
2023-04-13T00:57:05.881Z,3.47
2023-04-13T01:02:30.041Z,3.34
2023-04-13T01:08:15.983Z,3.33
2023-04-13T01:14:01.333Z,3.25
2023-04-13T01:19:28.278Z,3.16
2023-04-13T01:25:11.564Z,3.16
2023-04-13T01:30:38.164Z,3.09
2023-04-13T01:36:02.474Z,3.08
2023-04-13T01:41:25.873Z,3.18
2023-04-13T01:46:51.339Z,3.14
2023-04-13T01:52:15.192Z,3.10
2023-04-13T01:57:38.644Z,3.11
2023-04-13T02:03:01.059Z,3.09
2023-04-13T02:08:24.537Z,3.02
2023-04-13T02:13:47.695Z,2.99
2023-04-13T02:19:11.193Z,3.00
2023-04-13T02:24:34.763Z,3.09
2023-04-13T02:29:57.149Z,3.23
2023-04-13T02:35:22.762Z,3.36
2023-04-13T02:40:45.025Z,3.53
2023-04-13T02:46:09.721Z,3.62
2023-04-13T02:51:34.680Z,3.71
2023-04-13T02:57:01.064Z,3.78
2023-04-13T03:02:27.657Z,3.87
2023-04-13T03:07:52.677Z,3.89
2023-04-13T03:13:16.499Z,3.93
2023-04-13T03:18:38.855Z,3.94
2023-04-13T03:24:05.840Z,3.97
2023-04-13T03:29:30.026Z,3.99
2023-04-13T03:34:54.659Z,4.04
2023-04-13T03:40:19.676Z,4.09
2023-04-13T03:45:44.392Z,4.13
2023-04-13T03:51:07.582Z,4.17
2023-04-13T03:56:29.982Z,4.20
2023-04-13T04:01:55.385Z,4.25
2023-04-13T04:07:18.125Z,4.26
2023-04-13T04:12:40.416Z,4.28
2023-04-13T04:18:05.370Z,4.31
2023-04-13T04:23:29.111Z,4.32
2023-04-13T04:28:52.797Z,4.36
2023-04-13T04:34:17.352Z,4.40
2023-04-13T04:39:42.928Z,4.50
2023-04-13T04:45:07.563Z,4.59
2023-04-13T04:50:33.667Z,4.69
2023-04-13T04:55:56.264Z,4.88
2023-04-13T05:01:22.096Z,5.01
2023-04-13T05:06:47.094Z,5.18
2023-04-13T05:12:11.915Z,5.34
2023-04-13T05:17:37.159Z,5.58
2023-04-13T05:23:00.176Z,5.77
2023-04-13T05:28:24.981Z,6.10
2023-04-13T05:33:48.281Z,6.37
2023-04-13T05:39:12.161Z,6.68
2023-04-13T05:44:36.217Z,6.95
2023-04-13T05:49:59.409Z,7.21
2023-04-13T05:55:24.017Z,7.42
2023-04-13T06:00:47.725Z,7.59
2023-04-13T06:06:10.918Z,7.71
2023-04-13T06:11:34.080Z,7.74
2023-04-13T06:16:56.955Z,7.81
2023-04-13T06:22:22.449Z,8.16
2023-04-13T06:27:47.024Z,8.30
2023-04-13T06:33:09.435Z,8.21
2023-04-13T06:38:35.032Z,8.36
2023-04-13T06:43:58.557Z,8.40
2023-04-13T06:49:23.098Z,8.36
2023-04-13T06:54:48.419Z,8.37
2023-04-13T07:00:22.282Z,8.51
2023-04-13T07:05:35.833Z,8.60
2023-04-13T07:10:59.913Z,8.82
2023-04-13T07:16:24.869Z,9.02
2023-04-13T07:21:49.107Z,9.29
2023-04-13T07:27:11.883Z,9.48
2023-04-13T07:32:38.051Z,9.84
2023-04-13T07:38:00.936Z,10.22
2023-04-13T07:43:23.316Z,10.25
2023-04-13T07:48:46.158Z,10.40
2023-04-13T07:54:10.143Z,10.47
2023-04-13T07:59:33.194Z,10.57
2023-04-13T08:04:55.766Z,10.78
2023-04-13T08:10:20.117Z,11.09
2023-04-13T08:15:43.154Z,11.46
2023-04-13T08:21:06.272Z,11.79
2023-04-13T08:26:35.880Z,12.31
2023-04-13T08:31:59.538Z,12.60
2023-04-13T08:37:22.715Z,12.93
2023-04-13T08:42:50.455Z,13.27
2023-04-13T08:48:15.994Z,13.26
2023-04-13T08:53:38.721Z,13.21
2023-04-13T09:04:44.325Z,13.21
2023-04-13T09:10:09.732Z,13.46
2023-04-13T09:15:34.644Z,13.96
2023-04-13T09:21:05.704Z,14.08
2023-04-13T09:26:52.915Z,14.48
2023-04-13T09:32:18.529Z,13.66
2023-04-13T09:43:22.487Z,14.78
2023-04-13T09:48:46.838Z,15.52
2023-04-13T09:54:10.717Z,16.08
2023-04-13T09:59:35.155Z,15.58
2023-04-13T10:05:01.322Z,14.38
2023-04-13T10:10:27.017Z,13.88
2023-04-13T10:15:59.657Z,14.09
2023-04-13T10:21:27.321Z,14.56
2023-04-13T10:26:59.114Z,14.06
2023-04-13T10:32:28.890Z,13.84
2023-04-13T10:37:46.806Z,14.04
2023-04-13T10:43:10.824Z,14.41
2023-04-13T10:48:43.598Z,14.00
2023-04-13T10:54:11.102Z,14.18
2023-04-13T10:59:58.792Z,14.37
2023-04-13T11:05:24.528Z,14.73
2023-04-13T11:10:48.151Z,15.90
2023-04-13T11:16:14.951Z,15.97
2023-04-13T11:21:38.983Z,16.16
2023-04-13T11:27:02.159Z,16.52
2023-04-13T11:32:33.285Z,16.16
2023-04-13T11:38:01.932Z,15.92
2023-04-13T11:43:26.458Z,15.49
2023-04-13T11:48:49.494Z,14.30
2023-04-13T11:54:13.338Z,14.80
2023-04-13T11:59:37.117Z,15.27
2023-04-13T12:05:03.312Z,15.45
2023-04-13T12:10:38.520Z,14.79
2023-04-13T12:16:06.940Z,15.13
2023-04-13T12:21:23.478Z,15.52
2023-04-13T12:32:24.228Z,15.34
2023-04-13T12:37:48.296Z,14.84
2023-04-13T12:43:10.576Z,14.80
2023-04-13T12:48:33.003Z,14.41
2023-04-13T12:53:55.260Z,14.31
2023-04-13T12:59:18.262Z,14.35
2023-04-13T13:04:40.614Z,14.39
2023-04-13T13:10:06.229Z,14.46
2023-04-13T13:15:28.547Z,14.49
2023-04-13T13:20:52.584Z,14.28
2023-04-13T13:31:41.678Z,14.33
2023-04-13T13:37:04.223Z,14.09
2023-04-13T13:42:32.474Z,13.87
2023-04-13T13:47:58.250Z,14.07
2023-04-13T13:53:20.715Z,14.31
2023-04-13T13:58:43.298Z,14.23
2023-04-13T14:04:05.652Z,14.43
2023-04-13T14:09:28.505Z,14.95
2023-04-13T14:14:50.748Z,14.54
2023-04-13T14:20:14.282Z,13.66
2023-04-13T14:25:36.910Z,13.11
2023-04-13T14:30:59.620Z,12.79
2023-04-13T14:36:22.005Z,12.71
2023-04-13T14:41:44.333Z,12.79
2023-04-13T14:47:09.293Z,12.81
2023-04-13T14:52:32.670Z,12.92
2023-04-13T14:57:57.389Z,12.85
2023-04-13T15:03:22.301Z,12.83
2023-04-13T15:08:46.679Z,12.84
2023-04-13T15:14:09.229Z,12.88
2023-04-13T15:19:31.769Z,12.88
2023-04-13T15:24:54.497Z,13.16
2023-04-13T15:30:19.003Z,13.38
2023-04-13T15:35:42.638Z,13.45
2023-04-13T15:41:05.840Z,13.35
2023-04-13T15:46:28.372Z,13.08
2023-04-13T15:51:51.185Z,13.03
2023-04-13T15:57:13.689Z,13.10
2023-04-13T16:02:36.157Z,13.09
2023-04-13T16:07:58.828Z,13.05
2023-04-13T16:13:22.908Z,12.85
2023-04-13T16:18:45.780Z,12.72
2023-04-13T16:24:09.029Z,12.52
2023-04-13T16:29:32.887Z,12.40
2023-04-13T16:34:55.587Z,12.30
2023-04-13T16:40:19.749Z,12.26
2023-04-13T16:45:44.453Z,12.08
2023-04-13T16:51:13.542Z,11.91
2023-04-13T16:56:37.770Z,11.77
2023-04-13T17:02:00.188Z,11.63
2023-04-13T17:07:24.076Z,11.49
2023-04-13T17:12:48.726Z,11.37
2023-04-13T17:18:12.541Z,11.27
2023-04-13T17:23:35.395Z,11.12
2023-04-13T17:28:58.669Z,11.02
2023-04-13T17:34:21.831Z,10.97
2023-04-13T17:39:45.772Z,10.92
2023-04-13T17:45:08.111Z,10.84
2023-04-13T17:50:30.623Z,10.76
2023-04-13T17:55:54.594Z,10.71
2023-04-13T18:01:22.803Z,10.65
2023-04-13T18:06:45.609Z,10.58
2023-04-13T18:12:07.897Z,10.54
2023-04-13T18:17:30.162Z,10.48
2023-04-13T18:22:53.772Z,10.39
2023-04-13T18:28:16.710Z,10.32
2023-04-13T18:33:40.290Z,10.24
2023-04-13T18:39:04.674Z,10.14
2023-04-13T18:44:26.996Z,9.96
2023-04-13T18:49:49.307Z,9.81
2023-04-13T18:55:11.965Z,9.64
2023-04-13T19:00:35.282Z,9.64
2023-04-13T19:05:57.573Z,9.57
2023-04-13T19:11:20.404Z,9.54
2023-04-13T19:16:44.336Z,9.50
2023-04-13T19:22:07.197Z,9.42
2023-04-13T19:27:29.441Z,9.36
2023-04-13T19:32:54.741Z,9.37
2023-04-13T19:38:17.360Z,9.36
2023-04-13T19:43:39.623Z,9.29
2023-04-13T19:49:05.472Z,9.18
2023-04-13T19:54:28.001Z,9.11
2023-04-13T19:59:50.843Z,9.06
2023-04-13T20:05:13.691Z,9.07
2023-04-13T20:10:36.130Z,9.04
2023-04-13T20:15:58.519Z,8.96
2023-04-13T20:21:20.778Z,8.84
2023-04-13T20:26:44.253Z,8.74
2023-04-13T20:32:07.535Z,8.61
2023-04-13T20:37:29.773Z,8.57
2023-04-13T20:42:52.121Z,8.37
2023-04-13T20:53:41.814Z,8.06
2023-04-13T20:59:04.697Z,8.16
2023-04-13T21:04:27.527Z,8.26
2023-04-13T21:09:50.180Z,8.24
2023-04-13T21:15:12.799Z,8.22
2023-04-13T21:20:35.185Z,8.20
2023-04-13T21:25:57.428Z,8.17
2023-04-13T21:31:19.934Z,8.14
2023-04-13T21:42:09.463Z,7.99
2023-04-13T21:47:32.185Z,7.91
2023-04-13T21:52:54.541Z,7.88
2023-04-13T21:58:16.752Z,7.82
2023-04-13T22:03:40.891Z,7.73
2023-04-13T22:09:03.538Z,7.68
2023-04-13T22:14:26.168Z,7.61
2023-04-13T22:19:48.424Z,7.49
2023-04-13T22:25:11.096Z,7.35
2023-04-13T22:30:33.569Z,7.36
2023-04-13T22:35:55.815Z,7.55
2023-04-13T22:41:18.848Z,7.57
2023-04-13T22:46:41.326Z,7.54
2023-04-13T22:52:03.671Z,7.59
2023-04-13T22:57:26.598Z,7.60
2023-04-13T23:02:50.941Z,7.73
2023-04-13T23:08:13.578Z,7.71
2023-04-13T23:13:37.022Z,7.74
2023-04-13T23:18:59.669Z,7.80
2023-04-13T23:24:22.403Z,7.97
2023-04-13T23:29:45.991Z,8.11
2023-04-13T23:35:08.363Z,8.18
2023-04-13T23:40:30.850Z,8.21
2023-04-13T23:45:53.754Z,8.23
2023-04-13T23:51:16.228Z,8.32
2023-04-13T23:56:38.866Z,8.21
